Latest Coastal Weather Observations for Weipa

IDQ60701

Issued at 9:22 am EST Sunday 19 May 2024 (issued every 10 minutes, with the page automatically refreshed every 10 minutes)

About coastal observations | Map of coastal stations | Coastal observations for QLD | Marine services | Other Formats
Station Details ID: 027045 Name: WEIPA AERO Lat: -12.68 Lon: 141.92 Height: 17.96 m
Data from the previous 72 hours. | See also: Recent months at Weipa
Date/Time
EST
Wind Sea
Height
m
Swell Vis
km
Cloud Weather Temp
°C
Press
MSL
hPa
Rain since
9am
mm
Dir  Spd
kts
Gust
kts
Height
m
Period
s
Dir
19/09:00am ESE 12 17 - - - - 10 - - 25.8 1011.2 0.0
19/08:30am SE 10 14 - - - - 10 - - 24.5 1011.4 0.0
19/08:00am SE 8 11 - - - - 10 - - 23.6 1011.0 0.0
19/07:30am SE 8 11 - - - - 10 - - 22.4 1010.9 0.0
19/07:00am SE 8 11 - - - - 10 - - 22.4 1010.6 0.0
19/06:30am ESE 8 10 - - - - 10 - - 22.3 1010.2 0.0
19/06:00am ESE 8 11 - - - - 10 Mostly cloudy - 22.2 1010.1 0.0
19/05:30am ESE 6 8 - - - - 10 - - 22.2 1010.1 0.0
19/05:00am ESE 5 7 - - - - 10 - - 22.0 1009.8 0.0
19/04:30am SE 5 7 - - - - 10 - - 22.2 1009.6 0.0
19/04:00am SE 4 5 - - - - 10 - - 22.1 1009.4 0.0
19/03:30am SE 5 8 - - - - 10 - - 22.4 1009.4 0.0
19/03:00am SE 6 8 - - - - 10 - - 22.3 1009.4 0.0
19/02:30am ESE 6 8 - - - - 10 - - 22.5 1009.8 0.0
19/02:00am SE 5 7 - - - - 10 - - 22.8 1010.0 0.0
19/01:30am SE 5 7 - - - - 10 - - 23.0 1010.3 0.0
19/01:00am SE 4 6 - - - - 10 Partly cloudy - 23.2 1010.7 0.0
19/12:30am SE 5 8 - - - - 10 Partly cloudy - 23.3 1010.7 0.0
19/12:00am SSE 5 6 - - - - 10 Partly cloudy - 23.6 1011.0 0.0
 
Date/Time
EST
Wind Sea
Height
m
Swell Vis
km
Cloud Weather Temp
°C
Press
MSL
hPa
Rain since
9am
mm
Dir  Spd
kts
Gust
kts
Height
m
Period
s
Dir
18/11:30pm SE 5 7 - - - - 10 Partly cloudy - 24.1 1011.2 0.0
18/11:00pm SE 5 7 - - - - 10 Partly cloudy - 24.5 1011.3 0.0
18/10:30pm ESE 7 9 - - - - 10 Partly cloudy - 24.6 1011.4 0.0
18/10:00pm ESE 8 11 - - - - 10 Partly cloudy - 24.7 1011.3 0.0
18/09:30pm E 7 9 - - - - 10 Partly cloudy - 25.0 1011.1 0.0
18/09:00pm ESE 8 11 - - - - 10 Mostly clear - 25.3 1010.9 0.0
18/08:30pm ESE 9 13 - - - - 10 - - 25.6 1010.8 0.0
18/08:00pm E 8 11 - - - - 10 - - 25.8 1010.5 0.0
18/07:30pm E 8 11 - - - - 10 - - 26.3 1010.2 0.0
18/07:00pm ESE 10 15 - - - - 10 Partly cloudy - 26.9 1010.0 0.0
18/06:30pm ESE 9 13 - - - - 10 Partly cloudy - 27.2 1009.6 0.0
18/06:00pm SE 8 10 - - - - 10 Mostly cloudy - 27.5 1009.3 0.0
18/05:30pm SE 11 17 - - - - 10 Cloudy - 28.0 1009.0 0.0
18/05:00pm SE 11 17 - - - - 10 Partly cloudy - 28.4 1008.7 0.0
18/04:30pm SE 11 14 - - - - 10 Partly cloudy - 28.7 1008.2 0.0
18/04:00pm ESE 12 16 - - - - 10 Cloudy - 29.3 1008.0 0.0
18/03:30pm ESE 15 22 - - - - 10 Partly cloudy - 29.8 1007.8 0.0
18/03:00pm SE 13 19 - - - - 10 Cloudy - 29.2 1008.0 0.0
18/02:30pm ESE 12 16 - - - - 10 Partly cloudy - 30.7 1008.0 0.0
18/02:00pm ESE 16 22 - - - - 10 Partly cloudy - 30.0 1008.4 0.0
18/01:30pm E 14 19 - - - - 10 Partly cloudy - 29.7 1008.9 0.0
18/01:00pm ESE 16 21 - - - - 10 Cloudy - 30.1 1009.4 0.0
18/12:30pm E 15 22 - - - - 10 Partly cloudy - 30.6 1009.6 0.0
18/12:00pm ESE 13 17 - - - - 10 Mostly cloudy - 30.3 1010.4 0.0
18/11:30am ESE 12 17 - - - - 10 Partly cloudy - 29.1 1010.8 0.0
18/11:00am ESE 14 18 - - - - 10 Partly cloudy - 28.2 1011.3 0.0
18/10:30am ESE 16 23 - - - - 10 Partly cloudy - 28.8 1011.5 0.0
18/10:00am SE 13 18 - - - - 10 - - 27.9 1011.5 0.0
18/09:30am SE 15 23 - - - - 10 - - 27.3 1011.5 0.0
18/09:00am ESE 12 16 - - - - 10 Mostly clear - 26.8 1011.3 0.0
18/08:30am SE 11 16 - - - - 10 - - 26.5 1011.0 0.0
18/08:00am SE 11 15 - - - - 10 - - 25.3 1011.0 0.0
18/07:30am SE 8 11 - - - - 10 Partly cloudy - 24.5 1010.6 0.0
18/07:00am SE 8 11 - - - - 10 - - 23.9 1010.4 0.0
18/06:30am SE 8 10 - - - - 10 - - 23.9 1010.2 0.0
18/06:00am SE 7 9 - - - - 10 - - 24.0 1010.1 0.0
18/05:30am SE 6 9 - - - - 10 Partly cloudy - 24.2 1009.8 0.0
18/05:00am ESE 7 9 - - - - 10 Partly cloudy - 24.5 1009.7 0.0
18/04:30am ESE 9 11 - - - - 10 Cloudy - 25.0 1009.6 0.0
18/04:00am SE 10 13 - - - - 10 Cloudy - 25.1 1009.5 0.0
18/03:30am ESE 9 12 - - - - 10 Cloudy - 25.1 1009.6 0.0
18/03:00am SE 10 14 - - - - 10 Cloudy - 25.3 1009.8 0.0
18/02:30am ESE 10 15 - - - - 10 Cloudy - 25.4 1009.9 0.0
18/02:00am ESE 11 16 - - - - 10 Cloudy - 25.7 1010.2 0.0
18/01:30am ESE 10 13 - - - - 10 Cloudy - 25.7 1010.5 0.0
18/01:00am SE 8 11 - - - - 10 Cloudy - 25.5 1010.9 0.0
18/12:30am SE 7 11 - - - - 10 Cloudy - 25.5 1011.2 0.0
18/12:00am SE 8 10 - - - - 10 Cloudy - 25.6 1011.6 0.0
 
Date/Time
EST
Wind Sea
Height
m
Swell Vis
km
Cloud Weather Temp
°C
Press
MSL
hPa
Rain since
9am
mm
Dir  Spd
kts
Gust
kts
Height
m
Period
s
Dir
17/11:30pm ESE 8 11 - - - - 10 Cloudy - 25.7 1011.8 0.0
17/11:00pm ESE 8 10 - - - - 10 Partly cloudy - 25.9 1012.1 0.0
17/10:30pm ESE 8 10 - - - - 10 Partly cloudy - 26.0 1012.1 0.0
17/10:00pm E 8 9 - - - - 10 Partly cloudy - 26.2 1012.2 0.0
17/09:30pm E 8 10 - - - - 10 Cloudy - 26.4 1012.2 0.0
17/09:00pm ESE 8 11 - - - - 10 Mostly cloudy - 26.6 1011.8 0.0
17/08:30pm E 8 11 - - - - 10 Cloudy - 26.9 1011.5 0.0
17/08:00pm E 10 16 - - - - 10 Cloudy - 27.2 1011.2 0.0
17/07:30pm ESE 12 15 - - - - 10 Cloudy - 27.6 1010.9 0.0
17/07:00pm ESE 11 15 - - - - 10 Partly cloudy - 27.6 1010.6 0.0
17/06:30pm ESE 9 11 - - - - 10 - - 27.6 1010.3 0.0
17/06:00pm SE 9 15 - - - - 10 Mostly cloudy - 28.2 1009.9 0.0
17/05:30pm ESE 11 16 - - - - 10 Partly cloudy - 29.2 1009.6 0.0
17/05:00pm ESE 9 13 - - - - 10 Partly cloudy - 30.2 1009.4 0.0
17/04:30pm E 13 19 - - - - 10 Partly cloudy - 30.3 1009.3 0.0
17/04:00pm ESE 15 19 - - - - 10 Partly cloudy - 29.7 1009.2 0.0
17/03:30pm ESE 14 21 - - - - 10 Partly cloudy - 30.4 1009.2 0.0
17/03:00pm ESE 12 17 - - - - 10 Mostly cloudy - 30.6 1009.1 0.0
17/02:30pm ESE 14 20 - - - - 10 Partly cloudy - 30.9 1009.3 0.0
17/02:00pm ESE 14 20 - - - - 10 Cloudy - 30.2 1009.6 0.0
17/01:30pm ESE 17 23 - - - - 10 Cloudy - 29.9 1010.0 0.0
17/01:00pm ESE 16 21 - - - - 10 Partly cloudy - 30.1 1010.3 0.0
17/12:43pm ESE 16 26 - - - - 10 Partly cloudy - 30.6 1010.4 0.0
17/12:30pm SE 15 20 - - - - 10 Partly cloudy - 30.6 1010.6 0.0
17/12:00pm ESE 15 23 - - - - 10 Mostly clear - 30.1 1010.9 0.0
17/11:30am ESE 16 22 - - - - 10 Partly cloudy - 30.2 1011.3 0.0
17/11:00am ESE 14 18 - - - - 10 Partly cloudy - 29.5 1011.7 0.0
17/10:30am SE 13 17 - - - - 10 Partly cloudy - 28.8 1012.2 0.0
17/10:00am ESE 16 21 - - - - 10 Partly cloudy - 27.8 1012.5 0.0
17/09:30am SE 15 19 - - - - 10 - - 27.2 1012.9 0.0
17/09:00am ESE 15 21 - - - - 10 - - 26.6 1012.9 0.0
17/08:30am ESE 11 15 - - - - 10 - - 25.7 1013.0 0.0
17/08:00am SE 7 11 - - - - 10 - - 24.1 1012.6 0.0
17/07:30am SSE 5 8 - - - - 10 - - 22.6 1012.4 0.0
17/07:00am SE 5 6 - - - - 10 - - 22.0 1012.2 0.0
17/06:30am SSE 5 6 - - - - 10 - - 22.0 1011.8 0.0
17/06:00am SSE 5 7 - - - - 10 - - 22.1 1011.5 0.0
17/05:30am SSE 6 8 - - - - 10 - - 22.6 1011.6 0.0
17/05:00am SSE 5 7 - - - - 10 - - 22.9 1011.5 0.0
17/04:30am SE 6 8 - - - - 10 - - 23.2 1011.5 0.0
17/04:00am SE 6 10 - - - - 10 - - 23.5 1011.5 0.0
17/03:30am SE 8 11 - - - - 10 - - 23.8 1011.5 0.0
17/03:00am SE 8 12 - - - - 10 - - 23.8 1011.5 0.0
17/02:30am SE 6 8 - - - - 10 - - 23.6 1011.8 0.0
17/02:00am SSE 6 8 - - - - 10 - - 23.6 1011.9 0.0
17/01:30am SE 6 10 - - - - 10 - - 23.9 1012.3 0.0
17/01:00am SE 8 11 - - - - 10 - - 24.0 1012.7 0.0
17/12:30am SE 7 11 - - - - 10 - - 24.2 1013.1 0.0
17/12:00am SE 7 9 - - - - 10 - - 23.9 1013.5 0.0
 
Date/Time
EST
Wind Sea
Height
m
Swell Vis
km
Cloud Weather Temp
°C
Press
MSL
hPa
Rain since
9am
mm
Dir  Spd
kts
Gust
kts
Height
m
Period
s
Dir
16/11:30pm SE 7 10 - - - - 10 - - 24.0 1013.7 0.0
16/11:00pm SE 6 7 - - - - 10 - - 23.7 1013.9 0.0
16/10:30pm ESE 5 6 - - - - 10 - - 23.0 1014.2 0.0
16/10:00pm ESE 3 6 - - - - 10 - - 23.1 1014.2 0.0
16/09:30pm ESE 3 4 - - - - 10 - - 23.5 1014.2 0.0
16/09:00pm SE 4 5 - - - - 10 - - 23.8 1013.9 0.0
16/08:30pm ESE 4 5 - - - - 10 - - 24.2 1013.8 0.0
16/08:00pm ESE 6 7 - - - - 10 - - 25.0 1013.3 0.0
16/07:30pm ESE 8 11 - - - - 10 - - 25.7 1012.9 0.0
16/07:00pm SE 10 14 - - - - 10 - - 26.6 1012.4 0.0
16/06:30pm SE 11 15 - - - - 10 - - 27.2 1012.1 0.0
16/06:00pm SE 12 16 - - - - 10 - - 27.7 1011.8 0.0
16/05:30pm SE 12 16 - - - - 10 - - 28.7 1011.4 0.0
16/05:00pm SE 13 23 - - - - 10 Partly cloudy - 29.5 1011.1 0.0
16/04:30pm ESE 14 18 - - - - 10 Partly cloudy - 30.4 1011.0 0.0
16/04:00pm ESE 13 19 - - - - 10 Partly cloudy - 30.5 1010.8 0.0
16/03:30pm ESE 14 20 - - - - 10 Partly cloudy - 31.5 1010.7 0.0
16/03:00pm SE 12 16 - - - - 10 Mostly clear - 30.8 1010.8 0.0
16/02:30pm ESE 14 20 - - - - 10 Partly cloudy - 31.3 1011.0 0.0
16/02:00pm ESE 13 20 - - - - 10 Partly cloudy - 31.6 1011.5 0.0
16/01:30pm E 13 18 - - - - 10 Partly cloudy - 31.2 1011.8 0.0
16/01:00pm ESE 13 17 - - - - 10 Partly cloudy - 30.2 1012.3 0.0
16/12:30pm ESE 12 15 - - - - 10 Partly cloudy - 29.2 1012.6 0.0
16/12:00pm ESE 12 16 - - - - 10 Cloudy - 28.3 1013.0 0.0
16/11:30am ESE 10 13 - - - - 10 Partly cloudy - 28.2 1013.3 0.0
16/11:00am ESE 11 17 - - - - 10 Partly cloudy - 27.8 1013.8 0.0
16/10:30am ESE 10 15 - - - - 10 Partly cloudy - 27.5 1014.1 0.0
16/10:00am ESE 11 16 - - - - 10 Partly cloudy - 27.4 1014.2 0.0
16/09:30am ESE 9 13 - - - - 10 - - 26.6 1014.1 0.0

Other formats

Comma delimited format used in spreadsheet applications
http://www.bom.gov.au/fwo/IDQ60701/IDQ60701.94170.axf

JavaScript Object Notation format (JSON) in row-major order
http://www.bom.gov.au/fwo/IDQ60701/IDQ60701.94170.json

Data quality

Most of these data are generated automatically and are frequently updated. Quality checks on data are not normally performed. It is possible for incorrect values to appear. Refer to information at About Latest Weather Observations and please check the disclaimer before using these data.